Terminal Aerodrome Forecast
Issued by NWS

Home | Current Version | Previous Version | Text Only | Print | Product List | Glossary On
Versions: 1 2 3 4 5 6 7 8 9 10 11 12 13 14 15 16 17 18 19 20
000
FTUS41 KALY 010900 AAB
TAFPSF
TAF AMD
KPSF 010941Z 0110/0206 00000KT 4SM BR SCT002 BKN080
      TEMPO 0110/0112 3SM -SHRA BR
     FM011200 VRB03KT P6SM SCT010 BKN080
     FM011500 21005KT P6SM SCT035 SCT080
     FM011800 20007KT P6SM BKN040
     FM020000 20005KT P6SM SCT050 BKN250
     FM020400 VRB03KT 4SM BR SCT120 BKN250=

USA.gov is the U.S. government's official web portal to all federal, state and local government web resources and services.